Aviation Digital Data Service (ADDS)

Output produced by METARs form (0422 UTC 26 June 2019)
found at http://www.aviationweather.gov/metar/data/
 
METAR text: KJAN 260354Z 34004KT 10SM BKN100 22/21 A3015 RMK AO2 RAE20 SLP205 P0000 T02220206 $
Conditions at: KJAN (JACKSON , MS, US) observed 0354 UTC 26 June 2019
Temperature: 22.2°C (72°F)
Dewpoint: 20.6°C (69°F) [RH = 91%]
Pressure (altimeter): 30.15 inches Hg (1021.1 mb)
[Sea-level pressure: 1020.5 mb]
Winds: from the NNW (340 degrees) at 5 MPH (4 knots; 2.1 m/s)
Visibility: 10 or more miles (16+ km)
Ceiling: 10000 feet AGL
Clouds: broken clouds at 10000 feet AGL
Weather:
SOME DATA ABOVE MAY BE INACCURATE!!!
"$" is an indication the sensor requires maintenance

METAR text: KJAN 260254Z 00000KT 10SM -RA FEW075 BKN110 22/21 A3014 RMK AO2 RAB54 SLP203 P0000 60000 T02220206 53014 $
Conditions at: KJAN (JACKSON , MS, US) observed 0254 UTC 26 June 2019
Temperature: 22.2°C (72°F)
Dewpoint: 20.6°C (69°F) [RH = 91%]
Pressure (altimeter): 30.14 inches Hg (1020.7 mb)
[Sea-level pressure: 1020.3 mb]
Winds: calm
Visibility: 10 or more miles (16+ km)
Ceiling: 11000 feet AGL
Clouds: few clouds at 7500 feet AGL
broken clouds at 11000 feet AGL
Weather: -RA  (light rain)
SOME DATA ABOVE MAY BE INACCURATE!!!
"$" is an indication the sensor requires maintenance

METAR text: KJAN 260154Z 15003KT 10SM BKN110 22/20 A3011 RMK AO2 SLP192 T02220200 $
Conditions at: KJAN (JACKSON , MS, US) observed 0154 UTC 26 June 2019
Temperature: 22.2°C (72°F)
Dewpoint: 20.0°C (68°F) [RH = 87%]
Pressure (altimeter): 30.11 inches Hg (1019.7 mb)
[Sea-level pressure: 1019.2 mb]
Winds: from the SSE (150 degrees) at 3 MPH (3 knots; 1.5 m/s)
Visibility: 10 or more miles (16+ km)
Ceiling: 11000 feet AGL
Clouds: broken clouds at 11000 feet AGL
Weather:
SOME DATA ABOVE MAY BE INACCURATE!!!
"$" is an indication the sensor requires maintenance

METAR text: KJAN 260054Z 16009KT 10SM FEW050 OVC100 22/20 A3010 RMK AO2 RAE15 SLP189 P0000 T02220200 $
Conditions at: KJAN (JACKSON , MS, US) observed 0054 UTC 26 June 2019
Temperature: 22.2°C (72°F)
Dewpoint: 20.0°C (68°F) [RH = 87%]
Pressure (altimeter): 30.10 inches Hg (1019.4 mb)
[Sea-level pressure: 1018.9 mb]
Winds: from the SSE (160 degrees) at 10 MPH (9 knots; 4.6 m/s)
Visibility: 10 or more miles (16+ km)
Ceiling: 10000 feet AGL
Clouds: few clouds at 5000 feet AGL
overcast cloud deck at 10000 feet AGL
Weather:
SOME DATA ABOVE MAY BE INACCURATE!!!
"$" is an indication the sensor requires maintenance

METAR text: KJAN 252354Z 15008KT 10SM -RA SCT055 BKN090 OVC110 22/20 A3010 RMK AO2 TSE37 SLP189 TS MOV E P0006 60023 T02220200 10306 20222 50012 $
Conditions at: KJAN (JACKSON , MS, US) observed 2354 UTC 25 June 2019
Temperature: 22.2°C (72°F)
Dewpoint: 20.0°C (68°F) [RH = 87%]
Pressure (altimeter): 30.10 inches Hg (1019.4 mb)
[Sea-level pressure: 1018.9 mb]
Winds: from the SSE (150 degrees) at 9 MPH (8 knots; 4.1 m/s)
Visibility: 10 or more miles (16+ km)
Ceiling: 9000 feet AGL
Clouds: scattered clouds at 5500 feet AGL
broken clouds at 9000 feet AGL
overcast cloud deck at 11000 feet AGL
Weather: -RA  (light rain)
SOME DATA ABOVE MAY BE INACCURATE!!!
"$" is an indication the sensor requires maintenance

METAR text: KJAN 252343Z 16008KT 10SM -RA SCT055 BKN090 OVC110 23/20 A3011 RMK AO2 TSE37 TS MOV E P0006 T02280200 $
Conditions at: KJAN (JACKSON , MS, US) observed 2343 UTC 25 June 2019
Temperature: 22.8°C (73°F)
Dewpoint: 20.0°C (68°F) [RH = 84%]
Pressure (altimeter): 30.11 inches Hg (1019.7 mb)
Winds: from the SSE (160 degrees) at 9 MPH (8 knots; 4.1 m/s)
Visibility: 10 or more miles (16+ km)
Ceiling: 9000 feet AGL
Clouds: scattered clouds at 5500 feet AGL
broken clouds at 9000 feet AGL
overcast cloud deck at 11000 feet AGL
Weather: -RA  (light rain)
SOME DATA ABOVE MAY BE INACCURATE!!!
"$" is an indication the sensor requires maintenance

METAR text: KJAN 252254Z 22007KT 7SM -TSRA FEW021 BKN041CB OVC065 23/21 A3013 RMK AO2 PK WND 27026/2209 RAB21 TSB13 SLP199 OCNL LTGICCCCG OHD TS OHD MOV E P0017 T02280206 $
Conditions at: KJAN (JACKSON , MS, US) observed 2254 UTC 25 June 2019
Temperature: 22.8°C (73°F)
Dewpoint: 20.6°C (69°F) [RH = 87%]
Pressure (altimeter): 30.13 inches Hg (1020.4 mb)
[Sea-level pressure: 1019.9 mb]
Winds: from the SW (220 degrees) at 8 MPH (7 knots; 3.6 m/s)
Visibility: 7 miles (11 km)
Ceiling: 4100 feet AGL
Clouds: few clouds at 2100 feet AGL
broken clouds at 4100 feet AGL
overcast cloud deck at 6500 feet AGL
Weather: -TSRA  (light rain associated with thunderstorm(s))
SOME DATA ABOVE MAY BE INACCURATE!!!
"$" is an indication the sensor requires maintenance

METAR text: KJAN 252249Z 22008KT 3SM -TSRA BR FEW021 BKN041CB OVC065 22/21 A3013 RMK AO2 PK WND 27026/2209 RAB21 TSB13 OCNL LTGICCCCG OHD TS OHD MOV E P0017 $
Conditions at: KJAN (JACKSON , MS, US) observed 2249 UTC 25 June 2019
Temperature: 22.0°C (72°F)
Dewpoint: 21.0°C (70°F) [RH = 94%]
Pressure (altimeter): 30.13 inches Hg (1020.4 mb)
Winds: from the SW (220 degrees) at 9 MPH (8 knots; 4.1 m/s)
Visibility: 3 miles ( 5 km)
Ceiling: 4100 feet AGL
Clouds: few clouds at 2100 feet AGL
broken clouds at 4100 feet AGL
overcast cloud deck at 6500 feet AGL
Weather: -TSRA BR  (light rain associated with thunderstorm(s), mist)
SOME DATA ABOVE MAY BE INACCURATE!!!
"$" is an indication the sensor requires maintenance

METAR text: KJAN 252229Z 28007G20KT 1 1/2SM R16L/5000VP6000FT +TSRA FEW021 BKN041CB OVC065 23/20 A3013 RMK AO2 PK WND 27026/2209 RAB21 TSB13 OCNL LTGICCCCG OHD TS OHD MOV E P0006 T02280200 $
Conditions at: KJAN (JACKSON , MS, US) observed 2229 UTC 25 June 2019
Temperature: 22.8°C (73°F)
Dewpoint: 20.0°C (68°F) [RH = 84%]
Pressure (altimeter): 30.13 inches Hg (1020.4 mb)
Winds: from the W (280 degrees) at 8 MPH (7 knots; 3.6 m/s)
gusting to 23 MPH (20 knots; 10.3 m/s)
Visibility: 1.50 miles (2.41 km)
Ceiling: 4100 feet AGL
Clouds: few clouds at 2100 feet AGL
broken clouds at 4100 feet AGL
overcast cloud deck at 6500 feet AGL
Weather: +TSRA  (heavy rain associated with thunderstorm(s))
SOME DATA ABOVE MAY BE INACCURATE!!!
"$" is an indication the sensor requires maintenance

METAR text: KJAN 252219Z 25012G26KT 10SM TS FEW021 BKN036CB BKN049 24/19 A3012 RMK AO2 PK WND 27026/2209 LTG DSNT SE TSB13 OCNL LTGICCCCG SW-NW TS SW-NW MOV E T02390189 $
Conditions at: KJAN (JACKSON , MS, US) observed 2219 UTC 25 June 2019
Temperature: 23.9°C (75°F)
Dewpoint: 18.9°C (66°F) [RH = 74%]
Pressure (altimeter): 30.12 inches Hg (1020.1 mb)
Winds: from the WSW (250 degrees) at 14 MPH (12 knots; 6.2 m/s)
gusting to 30 MPH (26 knots; 13.4 m/s)
Visibility: 10 or more miles (16+ km)
Ceiling: 3600 feet AGL
Clouds: few clouds at 2100 feet AGL
broken clouds at 3600 feet AGL
broken clouds at 4900 feet AGL
Weather: TS  (thunderstorm)
SOME DATA ABOVE MAY BE INACCURATE!!!
"$" is an indication the sensor requires maintenance

METAR text: KJAN 252154Z 30006KT 10SM FEW027 BKN050 28/23 A3008 RMK AO2 LTG DSNT E AND SE SLP182 T02830228 $
Conditions at: KJAN (JACKSON , MS, US) observed 2154 UTC 25 June 2019
Temperature: 28.3°C (83°F)
Dewpoint: 22.8°C (73°F) [RH = 72%]
Pressure (altimeter): 30.08 inches Hg (1018.7 mb)
[Sea-level pressure: 1018.2 mb]
Winds: from the WNW (300 degrees) at 7 MPH (6 knots; 3.1 m/s)
Visibility: 10 or more miles (16+ km)
Ceiling: 5000 feet AGL
Clouds: few clouds at 2700 feet AGL
broken clouds at 5000 feet AGL
Weather:
SOME DATA ABOVE MAY BE INACCURATE!!!
"$" is an indication the sensor requires maintenance

METAR text: KJAN 252121Z 28008KT 10SM SCT050 BKN250 29/22 A3008 RMK AO2 LTG DSNT N-SE T02940222 $
Conditions at: KJAN (JACKSON , MS, US) observed 2121 UTC 25 June 2019
Temperature: 29.4°C (85°F)
Dewpoint: 22.2°C (72°F) [RH = 65%]
Pressure (altimeter): 30.08 inches Hg (1018.7 mb)
Winds: from the W (280 degrees) at 9 MPH (8 knots; 4.1 m/s)
Visibility: 10 or more miles (16+ km)
Ceiling: 25000 feet AGL
Clouds: scattered clouds at 5000 feet AGL
broken clouds at 25000 feet AGL
Weather:
SOME DATA ABOVE MAY BE INACCURATE!!!
"$" is an indication the sensor requires maintenance

METAR text: KJAN 252106Z COR 25006KT 10SM VCTS SCT050 BKN250 30/22 A3007 RMK AO2 LTG DSNT ALQDS T03000222 $
Conditions at: KJAN (JACKSON , MS, US) observed 2106 UTC 25 June 2019
Temperature: 30.0°C (86°F)
Dewpoint: 22.2°C (72°F) [RH = 63%]
Pressure (altimeter): 30.07 inches Hg (1018.4 mb)
Winds: from the WSW (250 degrees) at 7 MPH (6 knots; 3.1 m/s)
Visibility: 10 or more miles (16+ km)
Ceiling: 25000 feet AGL
Clouds: scattered clouds at 5000 feet AGL
broken clouds at 25000 feet AGL
Weather: VCTS  (thunderstorm in vicinity)
SOME DATA ABOVE MAY BE INACCURATE!!!
"$" is an indication the sensor requires maintenance

METAR text: KJAN 252054Z 25006KT 10SM SCT050 BKN250 30/22 A3007 RMK AO2 LTG DSNT ALQDS TSB1959E18 SLP176 T03000222 56007
Conditions at: KJAN (JACKSON , MS, US) observed 2054 UTC 25 June 2019
Temperature: 30.0°C (86°F)
Dewpoint: 22.2°C (72°F) [RH = 63%]
Pressure (altimeter): 30.07 inches Hg (1018.4 mb)
[Sea-level pressure: 1017.6 mb]
Winds: from the WSW (250 degrees) at 7 MPH (6 knots; 3.1 m/s)
Visibility: 10 or more miles (16+ km)
Ceiling: 25000 feet AGL
Clouds: scattered clouds at 5000 feet AGL
broken clouds at 25000 feet AGL
Weather: no significant weather observed at this time

METAR text: KJAN 252024Z 24007KT 10SM SCT050 BKN250 31/22 A3007 RMK AO2 LTG DSNT S AND NW TSB1959E18 T03060222
Conditions at: KJAN (JACKSON , MS, US) observed 2024 UTC 25 June 2019
Temperature: 30.6°C (87°F)
Dewpoint: 22.2°C (72°F) [RH = 61%]
Pressure (altimeter): 30.07 inches Hg (1018.4 mb)
Winds: from the WSW (240 degrees) at 8 MPH (7 knots; 3.6 m/s)
Visibility: 10 or more miles (16+ km)
Ceiling: 25000 feet AGL
Clouds: scattered clouds at 5000 feet AGL
broken clouds at 25000 feet AGL
Weather: no significant weather observed at this time

METAR text: KJAN 252005Z VRB05KT 10SM TS SCT050 BKN250 31/23 A3007 RMK AO2 LTG DSNT NW TSB1959 T03060228
Conditions at: KJAN (JACKSON , MS, US) observed 2005 UTC 25 June 2019
Temperature: 30.6°C (87°F)
Dewpoint: 22.8°C (73°F) [RH = 63%]
Pressure (altimeter): 30.07 inches Hg (1018.4 mb)
Winds: variable direction winds at 6 MPH (5 knots; 2.6 m/s)
Visibility: 10 or more miles (16+ km)
Ceiling: 25000 feet AGL
Clouds: scattered clouds at 5000 feet AGL
broken clouds at 25000 feet AGL
Weather: TS  (thunderstorm)

METAR text: KJAN 251954Z 21004KT 10SM FEW050 BKN250 31/23 A3007 RMK AO2 LTG DSNT NW SLP177 T03060228
Conditions at: KJAN (JACKSON , MS, US) observed 1954 UTC 25 June 2019
Temperature: 30.6°C (87°F)
Dewpoint: 22.8°C (73°F) [RH = 63%]
Pressure (altimeter): 30.07 inches Hg (1018.4 mb)
[Sea-level pressure: 1017.7 mb]
Winds: from the SSW (210 degrees) at 5 MPH (4 knots; 2.1 m/s)
Visibility: 10 or more miles (16+ km)
Ceiling: 25000 feet AGL
Clouds: few clouds at 5000 feet AGL
broken clouds at 25000 feet AGL
Weather: no significant weather observed at this time

METAR text: KJAN 251854Z 22007KT 10SM BKN250 31/21 A3008 RMK AO2 SLP180 T03060211
Conditions at: KJAN (JACKSON , MS, US) observed 1854 UTC 25 June 2019
Temperature: 30.6°C (87°F)
Dewpoint: 21.1°C (70°F) [RH = 57%]
Pressure (altimeter): 30.08 inches Hg (1018.7 mb)
[Sea-level pressure: 1018.0 mb]
Winds: from the SW (220 degrees) at 8 MPH (7 knots; 3.6 m/s)
Visibility: 10 or more miles (16+ km)
Ceiling: 25000 feet AGL
Clouds: broken clouds at 25000 feet AGL
Weather: no significant weather observed at this time

METAR text: KJAN 251754Z 24004KT 10SM BKN250 31/21 A3009 RMK AO2 SLP184 T03060211 10311 20222 53005
Conditions at: KJAN (JACKSON , MS, US) observed 1754 UTC 25 June 2019
Temperature: 30.6°C (87°F)
Dewpoint: 21.1°C (70°F) [RH = 57%]
Pressure (altimeter): 30.09 inches Hg (1019.0 mb)
[Sea-level pressure: 1018.4 mb]
Winds: from the WSW (240 degrees) at 5 MPH (4 knots; 2.1 m/s)
Visibility: 10 or more miles (16+ km)
Ceiling: 25000 feet AGL
Clouds: broken clouds at 25000 feet AGL
Weather: no significant weather observed at this time

METAR text: KJAN 251654Z VRB03KT 10SM BKN250 31/20 A3008 RMK AO2 SLP180 T03060200
Conditions at: KJAN (JACKSON , MS, US) observed 1654 UTC 25 June 2019
Temperature: 30.6°C (87°F)
Dewpoint: 20.0°C (68°F) [RH = 53%]
Pressure (altimeter): 30.08 inches Hg (1018.7 mb)
[Sea-level pressure: 1018.0 mb]
Winds: variable direction winds at 3 MPH (3 knots; 1.5 m/s)
Visibility: 10 or more miles (16+ km)
Ceiling: 25000 feet AGL
Clouds: broken clouds at 25000 feet AGL
Weather: no significant weather observed at this time

METAR text: KJAN 251554Z 23006KT 10SM BKN250 30/21 A3008 RMK AO2 SLP180 T03000206
Conditions at: KJAN (JACKSON , MS, US) observed 1554 UTC 25 June 2019
Temperature: 30.0°C (86°F)
Dewpoint: 20.6°C (69°F) [RH = 57%]
Pressure (altimeter): 30.08 inches Hg (1018.7 mb)
[Sea-level pressure: 1018.0 mb]
Winds: from the SW (230 degrees) at 7 MPH (6 knots; 3.1 m/s)
Visibility: 10 or more miles (16+ km)
Ceiling: 25000 feet AGL
Clouds: broken clouds at 25000 feet AGL
Weather: no significant weather observed at this time

METAR text: KJAN 251454Z 21003KT 10SM BKN250 28/21 A3008 RMK AO2 SLP179 T02780206 51009
Conditions at: KJAN (JACKSON , MS, US) observed 1454 UTC 25 June 2019
Temperature: 27.8°C (82°F)
Dewpoint: 20.6°C (69°F) [RH = 65%]
Pressure (altimeter): 30.08 inches Hg (1018.7 mb)
[Sea-level pressure: 1017.9 mb]
Winds: from the SSW (210 degrees) at 3 MPH (3 knots; 1.5 m/s)
Visibility: 10 or more miles (16+ km)
Ceiling: 25000 feet AGL
Clouds: broken clouds at 25000 feet AGL
Weather: no significant weather observed at this time

METAR text: KJAN 251354Z 19003KT 10SM BKN250 26/22 A3007 RMK AO2 SLP178 T02610217
Conditions at: KJAN (JACKSON , MS, US) observed 1354 UTC 25 June 2019
Temperature: 26.1°C (79°F)
Dewpoint: 21.7°C (71°F) [RH = 77%]
Pressure (altimeter): 30.07 inches Hg (1018.4 mb)
[Sea-level pressure: 1017.8 mb]
Winds: from the S (190 degrees) at 3 MPH (3 knots; 1.5 m/s)
Visibility: 10 or more miles (16+ km)
Ceiling: 25000 feet AGL
Clouds: broken clouds at 25000 feet AGL
Weather: no significant weather observed at this time

METAR text: KJAN 251254Z 00000KT 10SM SCT250 24/21 A3007 RMK AO2 SLP176 T02390211
Conditions at: KJAN (JACKSON , MS, US) observed 1254 UTC 25 June 2019
Temperature: 23.9°C (75°F)
Dewpoint: 21.1°C (70°F) [RH = 84%]
Pressure (altimeter): 30.07 inches Hg (1018.4 mb)
[Sea-level pressure: 1017.6 mb]
Winds: calm
Visibility: 10 or more miles (16+ km)
Ceiling: at least 12,000 feet AGL
Clouds: scattered clouds at 25000 feet AGL
Weather: no significant weather observed at this time

METAR text: KJAN 251154Z 00000KT 10SM BKN250 22/21 A3005 RMK AO2 SLP170 T02220206 10222 20206 53015
Conditions at: KJAN (JACKSON , MS, US) observed 1154 UTC 25 June 2019
Temperature: 22.2°C (72°F)
Dewpoint: 20.6°C (69°F) [RH = 91%]
Pressure (altimeter): 30.05 inches Hg (1017.7 mb)
[Sea-level pressure: 1017.0 mb]
Winds: calm
Visibility: 10 or more miles (16+ km)
Ceiling: 25000 feet AGL
Clouds: broken clouds at 25000 feet AGL
Weather: no significant weather observed at this time

METAR text: KJAN 251054Z 15003KT 10SM CLR 21/19 A3003 RMK AO2 SLP165 T02060194
Conditions at: KJAN (JACKSON , MS, US) observed 1054 UTC 25 June 2019
Temperature: 20.6°C (69°F)
Dewpoint: 19.4°C (67°F) [RH = 93%]
Pressure (altimeter): 30.03 inches Hg (1017.0 mb)
[Sea-level pressure: 1016.5 mb]
Winds: from the SSE (150 degrees) at 3 MPH (3 knots; 1.5 m/s)
Visibility: 10 or more miles (16+ km)
Ceiling: at least 12,000 feet AGL
Clouds: sky clear below 12,000 feet AGL
Weather: no significant weather observed at this time

METAR text: KJAN 250954Z 11003KT 10SM CLR 21/19 A3001 RMK AO2 SLP158 T02110194
Conditions at: KJAN (JACKSON , MS, US) observed 0954 UTC 25 June 2019
Temperature: 21.1°C (70°F)
Dewpoint: 19.4°C (67°F) [RH = 90%]
Pressure (altimeter): 30.01 inches Hg (1016.3 mb)
[Sea-level pressure: 1015.8 mb]
Winds: from the ESE (110 degrees) at 3 MPH (3 knots; 1.5 m/s)
Visibility: 10 or more miles (16+ km)
Ceiling: at least 12,000 feet AGL
Clouds: sky clear below 12,000 feet AGL
Weather: no significant weather observed at this time

METAR text: KJAN 250854Z 17003KT 10SM CLR 21/19 A3000 RMK AO2 SLP155 T02110194 51011
Conditions at: KJAN (JACKSON , MS, US) observed 0854 UTC 25 June 2019
Temperature: 21.1°C (70°F)
Dewpoint: 19.4°C (67°F) [RH = 90%]
Pressure (altimeter): 30.00 inches Hg (1016.0 mb)
[Sea-level pressure: 1015.5 mb]
Winds: from the S (170 degrees) at 3 MPH (3 knots; 1.5 m/s)
Visibility: 10 or more miles (16+ km)
Ceiling: at least 12,000 feet AGL
Clouds: sky clear below 12,000 feet AGL
Weather: no significant weather observed at this time

METAR text: KJAN 250754Z 17003KT 10SM CLR 22/20 A3000 RMK AO2 SLP155 T02170200
Conditions at: KJAN (JACKSON , MS, US) observed 0754 UTC 25 June 2019
Temperature: 21.7°C (71°F)
Dewpoint: 20.0°C (68°F) [RH = 90%]
Pressure (altimeter): 30.00 inches Hg (1016.0 mb)
[Sea-level pressure: 1015.5 mb]
Winds: from the S (170 degrees) at 3 MPH (3 knots; 1.5 m/s)
Visibility: 10 or more miles (16+ km)
Ceiling: at least 12,000 feet AGL
Clouds: sky clear below 12,000 feet AGL
Weather: no significant weather observed at this time

METAR text: KJAN 250654Z 18004KT 10SM CLR 22/20 A2999 RMK AO2 SLP151 T02220200
Conditions at: KJAN (JACKSON , MS, US) observed 0654 UTC 25 June 2019
Temperature: 22.2°C (72°F)
Dewpoint: 20.0°C (68°F) [RH = 87%]
Pressure (altimeter): 29.99 inches Hg (1015.7 mb)
[Sea-level pressure: 1015.1 mb]
Winds: from the S (180 degrees) at 5 MPH (4 knots; 2.1 m/s)
Visibility: 10 or more miles (16+ km)
Ceiling: at least 12,000 feet AGL
Clouds: sky clear below 12,000 feet AGL
Weather: no significant weather observed at this time

METAR text: KJAN 250554Z 16004KT 10SM CLR 21/19 A2997 RMK AO2 SLP145 T02110194 10289 20211 403060211 53006
Conditions at: KJAN (JACKSON , MS, US) observed 0554 UTC 25 June 2019
Temperature: 21.1°C (70°F)
Dewpoint: 19.4°C (67°F) [RH = 90%]
Pressure (altimeter): 29.97 inches Hg (1015.0 mb)
[Sea-level pressure: 1014.5 mb]
Winds: from the SSE (160 degrees) at 5 MPH (4 knots; 2.1 m/s)
Visibility: 10 or more miles (16+ km)
Ceiling: at least 12,000 feet AGL
Clouds: sky clear below 12,000 feet AGL
Weather: no significant weather observed at this time

METAR text: KJAN 250454Z 14003KT 10SM CLR 22/20 A2996 RMK AO2 SLP140 T02220200
Conditions at: KJAN (JACKSON , MS, US) observed 0454 UTC 25 June 2019
Temperature: 22.2°C (72°F)
Dewpoint: 20.0°C (68°F) [RH = 87%]
Pressure (altimeter): 29.96 inches Hg (1014.6 mb)
[Sea-level pressure: 1014.0 mb]
Winds: from the SE (140 degrees) at 3 MPH (3 knots; 1.5 m/s)
Visibility: 10 or more miles (16+ km)
Ceiling: at least 12,000 feet AGL
Clouds: sky clear below 12,000 feet AGL
Weather: no significant weather observed at this time

METAR text: KJAN 250354Z 00000KT 10SM CLR 23/20 A2997 RMK AO2 SLP144 T02280200
Conditions at: KJAN (JACKSON , MS, US) observed 0354 UTC 25 June 2019
Temperature: 22.8°C (73°F)
Dewpoint: 20.0°C (68°F) [RH = 84%]
Pressure (altimeter): 29.97 inches Hg (1015.0 mb)
[Sea-level pressure: 1014.4 mb]
Winds: calm
Visibility: 10 or more miles (16+ km)
Ceiling: at least 12,000 feet AGL
Clouds: sky clear below 12,000 feet AGL
Weather: no significant weather observed at this time

METAR text: KJAN 250254Z 00000KT 10SM FEW250 24/21 A2995 RMK AO2 SLP139 T02390206 51005
Conditions at: KJAN (JACKSON , MS, US) observed 0254 UTC 25 June 2019
Temperature: 23.9°C (75°F)
Dewpoint: 20.6°C (69°F) [RH = 82%]
Pressure (altimeter): 29.95 inches Hg (1014.3 mb)
[Sea-level pressure: 1013.9 mb]
Winds: calm
Visibility: 10 or more miles (16+ km)
Ceiling: at least 12,000 feet AGL
Clouds: few clouds at 25000 feet AGL
Weather: no significant weather observed at this time

METAR text: KJAN 250154Z 26003KT 10SM FEW250 25/20 A2995 RMK AO2 SLP138 T02500200
Conditions at: KJAN (JACKSON , MS, US) observed 0154 UTC 25 June 2019
Temperature: 25.0°C (77°F)
Dewpoint: 20.0°C (68°F) [RH = 74%]
Pressure (altimeter): 29.95 inches Hg (1014.3 mb)
[Sea-level pressure: 1013.8 mb]
Winds: from the W (260 degrees) at 3 MPH (3 knots; 1.5 m/s)
Visibility: 10 or more miles (16+ km)
Ceiling: at least 12,000 feet AGL
Clouds: few clouds at 25000 feet AGL
Weather: no significant weather observed at this time

METAR text: KJAN 250054Z 24004KT 10SM SCT250 27/21 A2995 RMK AO2 SLP136 T02670206
Conditions at: KJAN (JACKSON , MS, US) observed 0054 UTC 25 June 2019
Temperature: 26.7°C (80°F)
Dewpoint: 20.6°C (69°F) [RH = 69%]
Pressure (altimeter): 29.95 inches Hg (1014.3 mb)
[Sea-level pressure: 1013.6 mb]
Winds: from the WSW (240 degrees) at 5 MPH (4 knots; 2.1 m/s)
Visibility: 10 or more miles (16+ km)
Ceiling: at least 12,000 feet AGL
Clouds: scattered clouds at 25000 feet AGL
Weather: no significant weather observed at this time

METAR text: KJAN 242354Z 22007KT 10SM SCT250 29/21 A2994 RMK AO2 SLP133 T02890206 10306 20272 55002
Conditions at: KJAN (JACKSON , MS, US) observed 2354 UTC 24 June 2019
Temperature: 28.9°C (84°F)
Dewpoint: 20.6°C (69°F) [RH = 61%]
Pressure (altimeter): 29.94 inches Hg (1014.0 mb)
[Sea-level pressure: 1013.3 mb]
Winds: from the SW (220 degrees) at 8 MPH (7 knots; 3.6 m/s)
Visibility: 10 or more miles (16+ km)
Ceiling: at least 12,000 feet AGL
Clouds: scattered clouds at 25000 feet AGL
Weather: no significant weather observed at this time

METAR text: KJAN 242254Z 21006KT 10SM R16L/2000VP6000FT BKN250 29/21 A2994 RMK AO2 SLP132 T02940206
Conditions at: KJAN (JACKSON , MS, US) observed 2254 UTC 24 June 2019
Temperature: 29.4°C (85°F)
Dewpoint: 20.6°C (69°F) [RH = 59%]
Pressure (altimeter): 29.94 inches Hg (1014.0 mb)
[Sea-level pressure: 1013.2 mb]
Winds: from the SSW (210 degrees) at 7 MPH (6 knots; 3.1 m/s)
Visibility: 10 or more miles (16+ km)
Ceiling: 25000 feet AGL
Clouds: broken clouds at 25000 feet AGL
Weather: no significant weather observed at this time

METAR text: KJAN 242154Z 23009KT 10SM FEW045 BKN250 30/20 A2995 RMK AO2 SLP135 T03000200
Conditions at: KJAN (JACKSON , MS, US) observed 2154 UTC 24 June 2019
Temperature: 30.0°C (86°F)
Dewpoint: 20.0°C (68°F) [RH = 55%]
Pressure (altimeter): 29.95 inches Hg (1014.3 mb)
[Sea-level pressure: 1013.5 mb]
Winds: from the SW (230 degrees) at 10 MPH (9 knots; 4.6 m/s)
Visibility: 10 or more miles (16+ km)
Ceiling: 25000 feet AGL
Clouds: few clouds at 4500 feet AGL
broken clouds at 25000 feet AGL
Weather: no significant weather observed at this time

METAR text: KJAN 242054Z 24004KT 10SM FEW110 BKN250 30/21 A2994 RMK AO2 SLP135 T03000206 50006
Conditions at: KJAN (JACKSON , MS, US) observed 2054 UTC 24 June 2019
Temperature: 30.0°C (86°F)
Dewpoint: 20.6°C (69°F) [RH = 57%]
Pressure (altimeter): 29.94 inches Hg (1014.0 mb)
[Sea-level pressure: 1013.5 mb]
Winds: from the WSW (240 degrees) at 5 MPH (4 knots; 2.1 m/s)
Visibility: 10 or more miles (16+ km)
Ceiling: 25000 feet AGL
Clouds: few clouds at 11000 feet AGL
broken clouds at 25000 feet AGL
Weather: no significant weather observed at this time

METAR text: KJAN 241954Z 29005KT 10SM FEW110 BKN250 29/20 A2996 RMK AO2 SLP141 T02940200
Conditions at: KJAN (JACKSON , MS, US) observed 1954 UTC 24 June 2019
Temperature: 29.4°C (85°F)
Dewpoint: 20.0°C (68°F) [RH = 57%]
Pressure (altimeter): 29.96 inches Hg (1014.6 mb)
[Sea-level pressure: 1014.1 mb]
Winds: from the WNW (290 degrees) at 6 MPH (5 knots; 2.6 m/s)
Visibility: 10 or more miles (16+ km)
Ceiling: 25000 feet AGL
Clouds: few clouds at 11000 feet AGL
broken clouds at 25000 feet AGL
Weather: no significant weather observed at this time

METAR text: KJAN 241854Z 22007KT 10SM FEW110 BKN250 28/19 A2996 RMK AO2 SLP139 T02830194
Conditions at: KJAN (JACKSON , MS, US) observed 1854 UTC 24 June 2019
Temperature: 28.3°C (83°F)
Dewpoint: 19.4°C (67°F) [RH = 59%]
Pressure (altimeter): 29.96 inches Hg (1014.6 mb)
[Sea-level pressure: 1013.9 mb]
Winds: from the SW (220 degrees) at 8 MPH (7 knots; 3.6 m/s)
Visibility: 10 or more miles (16+ km)
Ceiling: 25000 feet AGL
Clouds: few clouds at 11000 feet AGL
broken clouds at 25000 feet AGL
Weather: no significant weather observed at this time

METAR text: KJAN 241754Z 19009G16KT 10SM BKN110 27/19 A2993 RMK AO2 SLP128 60000 T02720194 10278 20211 58005
Conditions at: KJAN (JACKSON , MS, US) observed 1754 UTC 24 June 2019
Temperature: 27.2°C (81°F)
Dewpoint: 19.4°C (67°F) [RH = 62%]
Pressure (altimeter): 29.93 inches Hg (1013.6 mb)
[Sea-level pressure: 1012.8 mb]
Winds: from the S (190 degrees) at 10 MPH (9 knots; 4.6 m/s)
gusting to 18 MPH (16 knots; 8.2 m/s)
Visibility: 10 or more miles (16+ km)
Ceiling: 11000 feet AGL
Clouds: broken clouds at 11000 feet AGL
Weather: no significant weather observed at this time

METAR text: KJAN 241654Z 19010KT 10SM BKN110 26/19 A2993 RMK AO2 SLP131 T02610194
Conditions at: KJAN (JACKSON , MS, US) observed 1654 UTC 24 June 2019
Temperature: 26.1°C (79°F)
Dewpoint: 19.4°C (67°F) [RH = 67%]
Pressure (altimeter): 29.93 inches Hg (1013.6 mb)
[Sea-level pressure: 1013.1 mb]
Winds: from the S (190 degrees) at 12 MPH (10 knots; 5.1 m/s)
Visibility: 10 or more miles (16+ km)
Ceiling: 11000 feet AGL
Clouds: broken clouds at 11000 feet AGL
Weather: no significant weather observed at this time

Forecast for: KJAN (JACKSON , MS, US)
Text: KJAN 252350Z 2600/2624 22004KT P6SM FEW030 OVC070
Forecast period: 0000 to 1500 UTC 26 June 2019
Forecast type: FROM: standard forecast or significant change
Winds: from the SW (220 degrees) at 5 MPH (4 knots; 2.1 m/s)
Visibility: 6 or more miles 10+ km)
Ceiling: 7000 feet AGL
Clouds: few clouds at 3000 feet AGL
overcast cloud deck at 7000 feet AGL
Weather: no significant weather forecast for this period
Text: FM261500 23007KT P6SM OVC100
Forecast period: 1500 UTC 26 June 2019 to 0000 UTC 27 June 2019
Forecast type: FROM: standard forecast or significant change
Winds: from the SW (230 degrees) at 8 MPH (7 knots; 3.6 m/s)
Visibility: 6 or more miles 10+ km)
Ceiling: 10000 feet AGL
Clouds: overcast cloud deck at 10000 feet AGL
Weather: no significant weather forecast for this period